createdAt,value
2023-04-05T00:01:01.481Z,17.35
2023-04-05T00:03:35.992Z,10.88
2023-04-05T00:06:13.070Z,27.13
2023-04-05T00:08:50.333Z,17.25
2023-04-05T00:11:23.837Z,12.85
2023-04-05T00:13:57.583Z,15.02
2023-04-05T00:19:05.717Z,15.15
2023-04-05T00:24:15.537Z,11.07
2023-04-05T00:26:48.832Z,13.32
2023-04-05T00:29:21.976Z,13.00
2023-04-05T00:31:57.077Z,13.20
2023-04-05T00:34:30.289Z,14.52
2023-04-05T00:37:03.435Z,16.20
2023-04-05T00:39:36.951Z,13.93
2023-04-05T00:42:10.191Z,10.68
2023-04-05T00:44:43.335Z,14.20
2023-04-05T00:47:17.957Z,13.75
2023-04-05T00:49:52.402Z,9.40
2023-04-05T00:52:27.159Z,14.65
2023-04-05T00:55:01.104Z,10.80
2023-04-05T00:57:35.514Z,14.40
2023-04-05T01:00:11.819Z,14.38
2023-04-05T01:02:51.994Z,12.85
2023-04-05T01:05:36.709Z,9.75
2023-04-05T01:08:19.541Z,13.07
2023-04-05T01:10:56.274Z,14.32
2023-04-05T01:13:31.451Z,9.50
2023-04-05T01:16:05.214Z,13.60
2023-04-05T01:18:40.829Z,14.82
2023-04-05T01:21:42.039Z,13.77
2023-04-05T01:24:26.043Z,10.65
2023-04-05T01:29:54.044Z,14.13
2023-04-05T01:32:43.883Z,10.55
2023-04-05T01:35:23.447Z,8.02
2023-04-05T01:38:01.585Z,9.32
2023-04-05T01:40:37.234Z,11.98
2023-04-05T01:43:14.762Z,9.00
2023-04-05T01:45:49.456Z,8.68
2023-04-05T01:48:22.669Z,10.50
2023-04-05T01:50:55.997Z,10.90
2023-04-05T01:53:29.216Z,12.50
2023-04-05T01:56:02.796Z,9.70
2023-04-05T01:58:35.953Z,10.10
2023-04-05T02:01:10.583Z,15.13
2023-04-05T02:03:43.927Z,6.65
2023-04-05T02:06:17.282Z,12.85
2023-04-05T02:08:50.454Z,9.68
2023-04-05T02:11:23.622Z,9.38
2023-04-05T02:13:56.784Z,8.40
2023-04-05T02:19:06.964Z,10.57
2023-04-05T02:21:40.904Z,9.13
2023-04-05T02:24:14.164Z,7.55
2023-04-05T02:26:47.350Z,7.47
2023-04-05T02:29:20.522Z,5.85
2023-04-05T02:31:57.112Z,11.40
2023-04-05T02:34:31.174Z,8.30
2023-04-05T02:37:04.855Z,10.23
2023-04-05T02:39:39.082Z,10.07
2023-04-05T02:42:12.227Z,9.75
2023-04-05T02:44:45.498Z,13.63
2023-04-05T02:47:22.483Z,8.50
2023-04-05T02:50:05.512Z,9.70
2023-04-05T02:52:44.139Z,10.88
2023-04-05T02:55:18.046Z,10.30
2023-04-05T02:57:51.200Z,7.93
2023-04-05T03:00:42.960Z,11.35
2023-04-05T03:03:18.680Z,4.95
2023-04-05T03:06:00.355Z,10.73
2023-04-05T03:08:37.349Z,10.77
2023-04-05T03:11:11.626Z,6.18
2023-04-05T03:13:46.590Z,6.38
2023-04-05T03:16:31.783Z,9.52
2023-04-05T03:19:10.674Z,8.73
2023-04-05T03:21:48.027Z,6.22
2023-04-05T03:24:31.212Z,6.95
2023-04-05T03:27:08.180Z,12.20
2023-04-05T03:29:49.060Z,8.65
2023-04-05T03:32:24.238Z,7.45
2023-04-05T03:35:07.275Z,6.20
2023-04-05T03:37:41.348Z,6.55
2023-04-05T03:40:15.815Z,8.82
2023-04-05T03:42:49.022Z,9.30
2023-04-05T03:45:24.582Z,7.13
2023-04-05T03:47:59.542Z,8.98
2023-04-05T03:50:34.853Z,8.32
2023-04-05T03:53:08.013Z,9.65
2023-04-05T03:55:46.594Z,13.90
2023-04-05T03:58:20.717Z,15.52
2023-04-05T04:03:30.875Z,10.80
2023-04-05T04:06:06.331Z,10.48
2023-04-05T04:08:39.845Z,9.13
2023-04-05T04:11:13.129Z,11.13
2023-04-05T04:13:48.190Z,7.95
2023-04-05T04:16:28.842Z,6.78
2023-04-05T04:19:21.843Z,12.18
2023-04-05T04:22:13.203Z,8.48
2023-04-05T04:25:09.775Z,7.32
2023-04-05T04:28:01.721Z,9.30
2023-04-05T04:30:44.048Z,10.43
2023-04-05T04:33:43.697Z,7.63
2023-04-05T04:36:34.974Z,13.07
2023-04-05T04:39:31.429Z,15.68
2023-04-05T04:42:23.866Z,10.77
2023-04-05T04:45:06.319Z,14.82
2023-04-05T04:48:04.973Z,10.93
2023-04-05T04:50:58.749Z,10.85
2023-04-05T04:53:34.988Z,9.95
2023-04-05T04:56:10.484Z,10.50
2023-04-05T04:58:43.699Z,6.03
2023-04-05T05:01:16.953Z,7.90
2023-04-05T05:03:50.187Z,4.75
2023-04-05T05:06:29.748Z,8.15
2023-04-05T05:09:02.981Z,9.77
2023-04-05T05:11:40.433Z,8.90
2023-04-05T05:14:17.969Z,10.48
2023-04-05T05:16:51.203Z,10.23
2023-04-05T05:19:25.664Z,8.10
2023-04-05T05:22:00.664Z,11.25
2023-04-05T05:24:33.888Z,6.72
2023-04-05T05:27:08.496Z,5.50
2023-04-05T05:29:41.764Z,12.32
2023-04-05T05:32:17.099Z,12.82
2023-04-05T05:34:50.454Z,12.07
2023-04-05T05:37:30.555Z,10.70
2023-04-05T05:40:05.157Z,12.38
2023-04-05T05:42:39.767Z,16.48
2023-04-05T05:45:13.723Z,12.18
2023-04-05T05:47:46.953Z,8.57
2023-04-05T05:50:20.689Z,14.23
2023-04-05T05:52:54.718Z,12.93
2023-04-05T05:55:27.904Z,9.35
2023-04-05T05:58:02.994Z,9.38
2023-04-05T06:00:36.383Z,11.55
2023-04-05T06:03:10.000Z,14.05
2023-04-05T06:08:25.514Z,9.80
2023-04-05T06:10:59.207Z,9.45
2023-04-05T06:13:33.792Z,10.70
2023-04-05T06:16:07.273Z,18.17
2023-04-05T06:18:40.517Z,10.85
2023-04-05T06:21:13.984Z,9.18
2023-04-05T06:23:47.156Z,7.53
2023-04-05T06:26:23.135Z,9.77
2023-04-05T06:28:57.749Z,10.73
2023-04-05T06:31:34.009Z,9.02
2023-04-05T06:34:07.171Z,10.10
2023-04-05T06:36:40.479Z,13.82
2023-04-05T06:39:13.651Z,7.28
2023-04-05T06:41:46.930Z,7.13
2023-04-05T06:44:21.505Z,9.95
2023-04-05T06:46:54.817Z,9.65
2023-04-05T06:49:27.997Z,8.30
2023-04-05T06:52:02.892Z,12.05
2023-04-05T06:54:38.471Z,9.13
2023-04-05T06:57:12.150Z,12.00
2023-04-05T06:59:47.116Z,11.13
2023-04-05T07:02:20.357Z,11.68
2023-04-05T07:04:53.858Z,7.72
2023-04-05T07:07:27.093Z,10.50
2023-04-05T07:10:00.650Z,11.75
2023-04-05T07:12:33.902Z,16.23
2023-04-05T07:15:09.733Z,12.23
2023-04-05T07:17:42.934Z,11.80
2023-04-05T07:20:16.346Z,12.52
2023-04-05T07:22:49.495Z,9.10
2023-04-05T07:25:22.638Z,11.70
2023-04-05T07:27:57.162Z,8.40
2023-04-05T07:30:32.891Z,14.35
2023-04-05T07:33:06.083Z,15.60
2023-04-05T07:35:39.312Z,14.48
2023-04-05T07:38:12.543Z,12.98
2023-04-05T07:40:45.883Z,17.70
2023-04-05T07:43:19.893Z,12.57
2023-04-05T07:46:02.164Z,12.13
2023-04-05T07:48:35.412Z,17.27
2023-04-05T07:51:10.397Z,16.63
2023-04-05T07:53:44.347Z,10.07
2023-04-05T07:58:51.863Z,12.88
2023-04-05T08:01:28.019Z,15.95
2023-04-05T08:04:01.247Z,12.73
2023-04-05T08:06:34.460Z,17.17
2023-04-05T08:09:09.063Z,13.68
2023-04-05T08:11:42.387Z,9.32
2023-04-05T08:14:15.634Z,12.68
2023-04-05T08:16:50.899Z,11.95
2023-04-05T08:19:24.217Z,8.68
2023-04-05T08:21:57.405Z,14.13
2023-04-05T08:24:30.864Z,9.90
2023-04-05T08:27:04.210Z,18.38
2023-04-05T08:29:37.580Z,10.18
2023-04-05T08:32:12.199Z,11.95
2023-04-05T08:34:45.424Z,10.30
2023-04-05T08:37:18.663Z,13.90
2023-04-05T08:39:52.007Z,13.15
2023-04-05T08:42:30.841Z,16.13
2023-04-05T08:45:05.677Z,10.80
2023-04-05T08:47:40.607Z,6.88
2023-04-05T08:50:14.403Z,8.45
2023-04-05T08:52:49.933Z,8.80
2023-04-05T08:55:23.444Z,9.98
2023-04-05T08:58:04.683Z,8.07
2023-04-05T09:00:39.238Z,8.30
2023-04-05T09:03:18.806Z,9.90
2023-04-05T09:05:53.334Z,7.38
2023-04-05T09:08:26.737Z,8.00
2023-04-05T09:11:00.314Z,7.47
2023-04-05T09:16:07.968Z,10.55
2023-04-05T09:18:44.366Z,10.82
2023-04-05T09:21:17.739Z,10.00
2023-04-05T09:23:55.840Z,6.25
2023-04-05T09:26:30.735Z,8.68
2023-04-05T09:29:07.185Z,10.70
2023-04-05T09:31:40.539Z,3.58
2023-04-05T09:34:22.144Z,4.80
2023-04-05T09:36:55.384Z,4.78
2023-04-05T09:39:33.436Z,4.80
2023-04-05T09:42:11.745Z,6.88
2023-04-05T09:44:51.213Z,5.13
2023-04-05T09:47:27.513Z,6.80
2023-04-05T09:50:19.282Z,2.90
2023-04-05T09:52:52.710Z,4.70
2023-04-05T09:55:30.048Z,4.00
2023-04-05T09:58:03.566Z,4.68
2023-04-05T10:00:38.008Z,5.13
2023-04-05T10:03:11.305Z,4.13
2023-04-05T10:05:46.302Z,3.72
2023-04-05T10:08:19.635Z,4.80
2023-04-05T10:10:58.655Z,3.78
2023-04-05T10:13:32.105Z,3.25
2023-04-05T10:16:08.547Z,3.53
2023-04-05T10:18:46.950Z,2.72
2023-04-05T10:21:24.499Z,5.28
2023-04-05T10:24:06.949Z,3.55
2023-04-05T10:26:48.768Z,3.05
2023-04-05T10:29:30.920Z,4.90
2023-04-05T10:32:12.334Z,2.55
2023-04-05T10:34:56.933Z,3.80
2023-04-05T10:37:40.983Z,3.63
2023-04-05T10:40:15.501Z,2.90
2023-04-05T10:42:50.017Z,2.92
2023-04-05T10:45:24.643Z,5.25
2023-04-05T10:48:07.022Z,2.83
2023-04-05T10:50:41.322Z,6.85
2023-04-05T10:53:17.983Z,2.45
2023-04-05T10:55:51.744Z,2.92
2023-04-05T11:01:00.395Z,2.20
2023-04-05T11:03:46.868Z,3.00
2023-04-05T11:06:25.599Z,2.65
2023-04-05T11:09:01.817Z,4.47
2023-04-05T11:11:40.563Z,2.35
2023-04-05T11:14:20.956Z,4.70
2023-04-05T11:16:56.886Z,6.93
2023-04-05T11:19:53.256Z,4.78
2023-04-05T11:22:28.908Z,2.78
2023-04-05T11:25:04.469Z,2.97
2023-04-05T11:27:38.019Z,3.60
2023-04-05T11:30:12.204Z,1.95
2023-04-05T11:32:46.594Z,3.63
2023-04-05T11:35:23.355Z,4.90
2023-04-05T11:37:58.830Z,2.50
2023-04-05T11:40:34.286Z,3.35
2023-04-05T11:43:09.981Z,2.10
2023-04-05T11:45:43.553Z,1.90
2023-04-05T11:48:16.849Z,4.97
2023-04-05T11:50:52.301Z,1.70
2023-04-05T11:53:25.518Z,2.08
2023-04-05T11:56:08.518Z,3.42
2023-04-05T11:58:41.813Z,2.83
2023-04-05T12:01:15.091Z,3.60
2023-04-05T12:03:55.232Z,2.47
2023-04-05T12:06:28.559Z,1.90
2023-04-05T12:09:01.741Z,1.92
2023-04-05T12:11:36.882Z,4.35
2023-04-05T12:14:10.107Z,2.75
2023-04-05T12:16:50.378Z,1.75
2023-04-05T12:19:24.070Z,1.95
2023-04-05T12:21:57.477Z,1.85
2023-04-05T12:24:31.441Z,1.95
2023-04-05T12:27:06.964Z,2.72
2023-04-05T12:29:40.444Z,2.47
2023-04-05T12:32:13.569Z,2.70
2023-04-05T12:34:49.404Z,2.70
2023-04-05T12:37:22.568Z,4.25
2023-04-05T12:39:56.024Z,5.05
2023-04-05T12:42:35.702Z,5.40
2023-04-05T12:45:12.877Z,6.07
2023-04-05T12:47:51.049Z,5.57
2023-04-05T12:50:29.259Z,5.00
2023-04-05T12:53:07.737Z,7.10
2023-04-05T12:55:48.741Z,4.97
2023-04-05T12:58:25.047Z,7.88
2023-04-05T13:00:58.288Z,9.20
2023-04-05T13:03:31.844Z,7.20
2023-04-05T13:08:38.753Z,8.90
2023-04-05T13:13:46.787Z,4.93
2023-04-05T13:16:23.787Z,6.57
2023-04-05T13:18:57.061Z,6.53
2023-04-05T13:21:30.970Z,5.75
2023-04-05T13:24:04.311Z,5.88
2023-04-05T13:26:37.499Z,4.03
2023-04-05T13:29:12.082Z,7.18
2023-04-05T13:31:45.435Z,7.25
2023-04-05T13:34:22.372Z,8.45
2023-04-05T13:36:56.895Z,9.00
2023-04-05T13:39:32.619Z,6.50
2023-04-05T13:42:15.587Z,8.82
2023-04-05T13:44:53.234Z,8.25
2023-04-05T13:47:27.309Z,9.60
2023-04-05T13:50:00.688Z,13.77
2023-04-05T13:52:34.060Z,8.85
2023-04-05T13:55:08.052Z,7.32
2023-04-05T13:57:41.339Z,7.55
2023-04-05T14:00:16.782Z,7.55
2023-04-05T14:02:52.447Z,8.50
2023-04-05T14:05:25.782Z,5.35
2023-04-05T14:07:58.944Z,8.65
2023-04-05T14:10:33.057Z,5.70
2023-04-05T14:13:06.238Z,7.32
2023-04-05T14:15:41.324Z,5.00
2023-04-05T14:18:14.897Z,5.13
2023-04-05T14:20:48.180Z,7.03
2023-04-05T14:23:21.831Z,7.60
2023-04-05T14:25:55.102Z,7.68
2023-04-05T14:28:28.401Z,4.47
2023-04-05T14:31:03.173Z,12.30
2023-04-05T14:33:36.509Z,15.95
2023-04-05T14:36:10.045Z,4.82
2023-04-05T14:38:43.460Z,6.90
2023-04-05T14:41:17.069Z,6.22
2023-04-05T14:43:50.457Z,9.20
2023-04-05T14:46:25.332Z,5.32
2023-04-05T14:48:58.774Z,9.20
2023-04-05T14:51:32.465Z,5.95
2023-04-05T14:54:07.044Z,7.60
2023-04-05T14:56:40.281Z,7.45
2023-04-05T14:59:13.529Z,8.13
2023-04-05T15:01:52.176Z,7.85
2023-04-05T15:04:33.022Z,7.30
2023-04-05T15:07:06.802Z,2.67
2023-04-05T15:09:40.226Z,3.22
2023-04-05T15:12:13.502Z,3.65
2023-04-05T15:14:48.624Z,4.45
2023-04-05T15:17:23.257Z,4.45
2023-04-05T15:19:56.512Z,3.63
2023-04-05T15:22:29.860Z,3.50
2023-04-05T15:25:03.309Z,6.60
2023-04-05T15:27:36.663Z,4.60
2023-04-05T15:30:10.925Z,3.58
2023-04-05T15:32:45.786Z,8.30
2023-04-05T15:35:20.424Z,3.80
2023-04-05T15:37:53.672Z,7.50
2023-04-05T15:40:26.967Z,2.22
2023-04-05T15:43:01.733Z,6.47
2023-04-05T15:45:36.177Z,2.90
2023-04-05T15:48:10.853Z,2.83
2023-04-05T15:50:44.872Z,9.15
2023-04-05T15:53:19.136Z,4.05
2023-04-05T15:55:55.983Z,6.60
2023-04-05T15:58:31.656Z,4.50
2023-04-05T16:01:05.422Z,1.60
2023-04-05T16:03:45.166Z,2.88
2023-04-05T16:06:18.852Z,2.10
2023-04-05T16:08:52.283Z,4.82
2023-04-05T16:11:25.681Z,2.38
2023-04-05T16:13:59.019Z,1.80
2023-04-05T16:16:42.058Z,4.75
2023-04-05T16:19:27.271Z,3.45
2023-04-05T16:22:03.115Z,2.08
2023-04-05T16:24:38.240Z,2.83
2023-04-05T16:27:11.556Z,4.00
2023-04-05T16:29:44.948Z,6.80
2023-04-05T16:32:18.840Z,2.80
2023-04-05T16:34:53.748Z,2.95
2023-04-05T16:37:27.304Z,3.50
2023-04-05T16:40:00.752Z,2.28
2023-04-05T16:42:34.102Z,5.15
2023-04-05T16:45:08.408Z,7.82
2023-04-05T16:47:42.159Z,9.95
2023-04-05T16:50:22.108Z,8.35
2023-04-05T16:52:59.942Z,4.50
2023-04-05T16:55:34.232Z,10.63
2023-04-05T16:58:07.503Z,5.88
2023-04-05T17:00:41.323Z,4.43
2023-04-05T17:05:50.293Z,4.35
2023-04-05T17:08:24.219Z,7.00
2023-04-05T17:13:30.985Z,5.78
2023-04-05T17:16:04.333Z,5.50
2023-04-05T17:18:41.102Z,5.03
2023-04-05T17:21:20.505Z,10.18
2023-04-05T17:23:54.679Z,7.80
2023-04-05T17:26:29.177Z,3.80
2023-04-05T17:29:02.869Z,5.10
2023-04-05T17:31:36.975Z,5.28
2023-04-05T17:34:13.173Z,5.13
2023-04-05T17:36:47.813Z,7.50
2023-04-05T17:39:21.069Z,5.63
2023-04-05T17:41:56.686Z,8.23
2023-04-05T17:44:30.525Z,7.05
2023-04-05T17:49:43.029Z,6.93
2023-04-05T17:52:17.695Z,13.60
2023-04-05T17:54:52.400Z,5.00
2023-04-05T17:57:25.737Z,5.63
2023-04-05T17:59:59.346Z,10.02
2023-04-05T18:02:37.135Z,5.47
2023-04-05T18:05:11.275Z,7.47
2023-04-05T18:07:45.955Z,11.35
2023-04-05T18:10:20.433Z,4.45
2023-04-05T18:12:53.659Z,8.52
2023-04-05T18:15:27.090Z,7.95
2023-04-05T18:18:00.398Z,4.85
2023-04-05T18:20:33.906Z,10.35
2023-04-05T18:23:08.732Z,4.63
2023-04-05T18:25:42.417Z,9.38
2023-04-05T18:28:22.817Z,7.85
2023-04-05T18:30:56.835Z,6.30
2023-04-05T18:33:30.151Z,4.13
2023-04-05T18:36:03.425Z,3.60
2023-04-05T18:38:38.451Z,5.63
2023-04-05T18:41:12.459Z,2.97
2023-04-05T18:43:46.048Z,3.88
2023-04-05T18:46:19.308Z,3.80
2023-04-05T18:48:54.637Z,7.78
2023-04-05T18:51:28.581Z,5.57
2023-04-05T18:54:03.924Z,4.50
2023-04-05T18:56:37.177Z,3.72
2023-04-05T18:59:10.614Z,6.80
2023-04-05T19:01:44.107Z,2.80
2023-04-05T19:04:17.543Z,4.20
2023-04-05T19:06:50.773Z,2.83
2023-04-05T19:09:26.336Z,9.07
2023-04-05T19:11:59.578Z,6.22
2023-04-05T19:14:32.960Z,4.43
2023-04-05T19:17:08.048Z,2.67
2023-04-05T19:19:43.278Z,4.47
2023-04-05T19:22:16.524Z,2.83
2023-04-05T19:24:51.209Z,2.45
2023-04-05T19:27:24.550Z,2.10
2023-04-05T19:29:58.296Z,3.03
2023-04-05T19:35:06.889Z,3.08
2023-04-05T19:37:40.249Z,4.22
2023-04-05T19:40:15.548Z,8.50
2023-04-05T19:42:48.820Z,2.85
2023-04-05T19:45:25.992Z,2.63
2023-04-05T19:48:02.868Z,2.92
2023-04-05T19:50:46.915Z,2.47
2023-04-05T19:56:25.677Z,4.72
2023-04-05T19:59:01.443Z,8.02
2023-04-05T20:01:36.414Z,3.50
2023-04-05T20:04:13.568Z,5.78
2023-04-05T20:06:52.881Z,5.30
2023-04-05T20:09:29.267Z,2.20
2023-04-05T20:12:05.697Z,5.90
2023-04-05T20:14:42.366Z,3.40
2023-04-05T20:17:18.650Z,5.00
2023-04-05T20:19:57.703Z,3.17
2023-04-05T20:22:33.552Z,2.75
2023-04-05T20:25:32.977Z,2.70
2023-04-05T20:28:24.738Z,3.03
2023-04-05T20:30:58.043Z,2.53
2023-04-05T20:33:49.745Z,2.55
2023-04-05T20:36:24.334Z,4.22
2023-04-05T20:38:57.621Z,2.92
2023-04-05T20:41:31.529Z,8.02
2023-04-05T20:44:06.454Z,5.05
2023-04-05T20:46:39.730Z,4.20
2023-04-05T20:49:13.031Z,4.47
2023-04-05T20:51:46.527Z,3.38
2023-04-05T20:54:21.147Z,4.22
2023-04-05T20:56:54.478Z,6.35
2023-04-05T20:59:29.220Z,5.30
2023-04-05T21:02:02.662Z,4.70
2023-04-05T21:04:36.206Z,5.55
2023-04-05T21:07:09.455Z,4.10
2023-04-05T21:09:42.720Z,4.50
2023-04-05T21:12:16.048Z,5.03
2023-04-05T21:14:50.737Z,7.38
2023-04-05T21:17:24.157Z,3.78
2023-04-05T21:19:57.615Z,6.10
2023-04-05T21:22:30.871Z,4.20
2023-04-05T21:25:05.601Z,5.30
2023-04-05T21:27:38.875Z,3.40
2023-04-05T21:30:14.994Z,6.35
2023-04-05T21:32:48.399Z,4.00
2023-04-05T21:35:22.418Z,4.15
2023-04-05T21:37:55.803Z,4.65
2023-04-05T21:40:29.556Z,3.80
2023-04-05T21:43:02.887Z,5.20
2023-04-05T21:45:37.502Z,3.65
2023-04-05T21:48:11.247Z,6.32
2023-04-05T21:50:44.542Z,3.60
2023-04-05T21:53:17.828Z,5.43
2023-04-05T21:55:51.316Z,6.88
2023-04-05T21:58:26.368Z,3.38
2023-04-05T22:01:01.492Z,5.13
2023-04-05T22:03:35.196Z,4.55
2023-04-05T22:08:41.562Z,3.95
2023-04-05T22:11:14.943Z,3.50
2023-04-05T22:13:48.254Z,3.95
2023-04-05T22:16:22.901Z,3.53
2023-04-05T22:18:56.213Z,4.03
2023-04-05T22:21:29.422Z,3.33
2023-04-05T22:24:02.637Z,4.78
2023-04-05T22:26:35.885Z,4.43
2023-04-05T22:29:09.512Z,5.90
2023-04-05T22:36:50.769Z,4.28
2023-04-05T22:39:23.962Z,3.50
2023-04-05T22:41:57.403Z,2.97
2023-04-05T22:44:30.644Z,3.88
2023-04-05T22:47:05.332Z,3.50
2023-04-05T22:49:38.557Z,3.40
2023-04-05T22:52:11.865Z,3.97
2023-04-05T22:54:45.081Z,3.95
2023-04-05T22:57:18.408Z,3.20
2023-04-05T22:59:51.829Z,4.32
2023-04-05T23:02:27.938Z,3.50
2023-04-05T23:05:01.429Z,6.75
2023-04-05T23:07:34.756Z,3.92
2023-04-05T23:10:08.653Z,6.28
2023-04-05T23:12:41.999Z,5.03
2023-04-05T23:15:15.755Z,3.95
2023-04-05T23:20:23.776Z,6.18
2023-04-05T23:22:57.397Z,4.45
2023-04-05T23:25:30.761Z,6.55
2023-04-05T23:28:04.011Z,4.25
2023-04-05T23:30:37.267Z,2.95
2023-04-05T23:33:12.839Z,6.03
2023-04-05T23:35:46.748Z,4.00
2023-04-05T23:38:19.975Z,4.05
2023-04-05T23:40:53.173Z,3.75
2023-04-05T23:43:26.421Z,5.65
2023-04-05T23:45:59.702Z,4.97
2023-04-05T23:48:34.311Z,3.85
2023-04-05T23:51:07.611Z,4.63
2023-04-05T23:53:40.883Z,4.75
2023-04-05T23:56:14.136Z,4.63
2023-04-05T23:58:47.388Z,3.38
